sensor_id;sensor_type;location;lat;lon;timestamp;P1;durP1;ratioP1;P2;durP2;ratioP2
32535;SDS011;18974;50.838;4.636;2022-08-21T00:01:05;11.60;;;3.78;;
32535;SDS011;18974;50.838;4.636;2022-08-21T00:03:35;14.30;;;3.38;;
32535;SDS011;18974;50.838;4.636;2022-08-21T00:06:00;6.32;;;3.20;;
32535;SDS011;18974;50.838;4.636;2022-08-21T00:08:27;9.65;;;3.78;;
32535;SDS011;18974;50.838;4.636;2022-08-21T00:10:52;8.40;;;3.33;;
32535;SDS011;18974;50.838;4.636;2022-08-21T00:13:18;8.30;;;3.55;;
32535;SDS011;18974;50.838;4.636;2022-08-21T00:15:45;7.80;;;3.65;;
32535;SDS011;18974;50.838;4.636;2022-08-21T00:18:12;6.72;;;3.40;;
32535;SDS011;18974;50.838;4.636;2022-08-21T00:20:38;6.80;;;3.30;;
32535;SDS011;18974;50.838;4.636;2022-08-21T00:23:06;11.73;;;3.92;;
32535;SDS011;18974;50.838;4.636;2022-08-21T00:25:32;7.13;;;3.22;;
32535;SDS011;18974;50.838;4.636;2022-08-21T00:27:58;8.23;;;3.10;;
32535;SDS011;18974;50.838;4.636;2022-08-21T00:30:25;9.20;;;3.47;;
32535;SDS011;18974;50.838;4.636;2022-08-21T00:32:52;10.68;;;3.88;;
32535;SDS011;18974;50.838;4.636;2022-08-21T00:35:20;7.47;;;4.03;;
32535;SDS011;18974;50.838;4.636;2022-08-21T00:37:49;10.52;;;4.18;;
32535;SDS011;18974;50.838;4.636;2022-08-21T00:40:17;11.98;;;5.15;;
32535;SDS011;18974;50.838;4.636;2022-08-21T00:42:44;9.13;;;4.13;;
32535;SDS011;18974;50.838;4.636;2022-08-21T00:45:13;12.27;;;3.90;;
32535;SDS011;18974;50.838;4.636;2022-08-21T00:47:39;9.82;;;4.35;;
32535;SDS011;18974;50.838;4.636;2022-08-21T00:50:05;10.60;;;3.95;;
32535;SDS011;18974;50.838;4.636;2022-08-21T00:52:34;11.45;;;4.68;;
32535;SDS011;18974;50.838;4.636;2022-08-21T00:55:03;10.43;;;4.10;;
32535;SDS011;18974;50.838;4.636;2022-08-21T00:57:34;8.63;;;3.50;;
32535;SDS011;18974;50.838;4.636;2022-08-21T01:00:05;11.95;;;3.75;;
32535;SDS011;18974;50.838;4.636;2022-08-21T01:02:33;6.45;;;3.53;;
32535;SDS011;18974;50.838;4.636;2022-08-21T01:04:59;9.73;;;3.95;;
32535;SDS011;18974;50.838;4.636;2022-08-21T01:07:25;8.65;;;3.80;;
32535;SDS011;18974;50.838;4.636;2022-08-21T01:09:50;8.50;;;3.85;;
32535;SDS011;18974;50.838;4.636;2022-08-21T01:12:17;12.15;;;4.22;;
32535;SDS011;18974;50.838;4.636;2022-08-21T01:14:43;8.95;;;3.92;;
32535;SDS011;18974;50.838;4.636;2022-08-21T01:17:10;8.52;;;4.10;;
32535;SDS011;18974;50.838;4.636;2022-08-21T01:19:39;14.60;;;4.47;;
32535;SDS011;18974;50.838;4.636;2022-08-21T01:22:05;8.07;;;4.28;;
32535;SDS011;18974;50.838;4.636;2022-08-21T01:24:30;10.75;;;4.15;;
32535;SDS011;18974;50.838;4.636;2022-08-21T01:26:57;8.02;;;3.90;;
32535;SDS011;18974;50.838;4.636;2022-08-21T01:31:52;6.60;;;3.60;;
32535;SDS011;18974;50.838;4.636;2022-08-21T01:34:18;10.85;;;3.92;;
32535;SDS011;18974;50.838;4.636;2022-08-21T01:36:44;11.50;;;3.67;;
32535;SDS011;18974;50.838;4.636;2022-08-21T01:39:11;7.80;;;3.15;;
32535;SDS011;18974;50.838;4.636;2022-08-21T01:41:38;9.25;;;4.00;;
32535;SDS011;18974;50.838;4.636;2022-08-21T01:44:04;5.13;;;3.70;;
32535;SDS011;18974;50.838;4.636;2022-08-21T01:46:30;7.18;;;3.75;;
32535;SDS011;18974;50.838;4.636;2022-08-21T01:48:56;12.15;;;4.15;;
32535;SDS011;18974;50.838;4.636;2022-08-21T01:51:21;8.52;;;4.30;;
32535;SDS011;18974;50.838;4.636;2022-08-21T01:53:47;8.80;;;4.20;;
32535;SDS011;18974;50.838;4.636;2022-08-21T01:56:15;8.88;;;3.90;;
32535;SDS011;18974;50.838;4.636;2022-08-21T01:58:41;12.90;;;3.85;;
32535;SDS011;18974;50.838;4.636;2022-08-21T02:01:09;16.83;;;4.18;;
32535;SDS011;18974;50.838;4.636;2022-08-21T02:03:35;8.02;;;4.13;;
32535;SDS011;18974;50.838;4.636;2022-08-21T02:06:02;9.60;;;3.85;;
32535;SDS011;18974;50.838;4.636;2022-08-21T02:08:29;9.13;;;3.75;;
32535;SDS011;18974;50.838;4.636;2022-08-21T02:10:55;9.25;;;3.83;;
32535;SDS011;18974;50.838;4.636;2022-08-21T02:13:21;10.02;;;4.00;;
32535;SDS011;18974;50.838;4.636;2022-08-21T02:15:46;8.50;;;3.90;;
32535;SDS011;18974;50.838;4.636;2022-08-21T02:18:12;11.55;;;4.50;;
32535;SDS011;18974;50.838;4.636;2022-08-21T02:20:39;8.77;;;4.03;;
32535;SDS011;18974;50.838;4.636;2022-08-21T02:23:08;9.95;;;4.50;;
32535;SDS011;18974;50.838;4.636;2022-08-21T02:25:35;7.63;;;3.67;;
32535;SDS011;18974;50.838;4.636;2022-08-21T02:28:02;10.27;;;4.28;;
32535;SDS011;18974;50.838;4.636;2022-08-21T02:30:31;9.80;;;3.75;;
32535;SDS011;18974;50.838;4.636;2022-08-21T02:33:00;9.68;;;4.03;;
32535;SDS011;18974;50.838;4.636;2022-08-21T02:35:26;12.93;;;4.13;;
32535;SDS011;18974;50.838;4.636;2022-08-21T02:40:21;10.80;;;4.03;;
32535;SDS011;18974;50.838;4.636;2022-08-21T02:42:48;11.77;;;3.90;;
32535;SDS011;18974;50.838;4.636;2022-08-21T02:45:14;9.30;;;3.55;;
32535;SDS011;18974;50.838;4.636;2022-08-21T02:47:56;17.60;;;4.07;;
32535;SDS011;18974;50.838;4.636;2022-08-21T02:50:25;8.63;;;3.28;;
32535;SDS011;18974;50.838;4.636;2022-08-21T02:52:53;11.15;;;4.05;;
32535;SDS011;18974;50.838;4.636;2022-08-21T02:55:19;10.20;;;3.85;;
32535;SDS011;18974;50.838;4.636;2022-08-21T02:57:46;8.35;;;3.78;;
32535;SDS011;18974;50.838;4.636;2022-08-21T03:00:13;17.45;;;3.65;;
32535;SDS011;18974;50.838;4.636;2022-08-21T03:02:40;8.45;;;3.80;;
32535;SDS011;18974;50.838;4.636;2022-08-21T03:05:07;8.10;;;3.60;;
32535;SDS011;18974;50.838;4.636;2022-08-21T03:07:35;11.55;;;3.75;;
32535;SDS011;18974;50.838;4.636;2022-08-21T03:10:02;6.75;;;3.60;;
32535;SDS011;18974;50.838;4.636;2022-08-21T03:12:29;11.43;;;3.75;;
32535;SDS011;18974;50.838;4.636;2022-08-21T03:14:54;10.43;;;3.70;;
32535;SDS011;18974;50.838;4.636;2022-08-21T03:17:20;9.48;;;3.85;;
32535;SDS011;18974;50.838;4.636;2022-08-21T03:19:46;10.02;;;3.72;;
32535;SDS011;18974;50.838;4.636;2022-08-21T03:22:11;10.45;;;4.30;;
32535;SDS011;18974;50.838;4.636;2022-08-21T03:24:37;10.02;;;4.00;;
32535;SDS011;18974;50.838;4.636;2022-08-21T03:27:02;10.43;;;4.13;;
32535;SDS011;18974;50.838;4.636;2022-08-21T03:29:28;10.00;;;3.65;;
32535;SDS011;18974;50.838;4.636;2022-08-21T03:31:54;5.88;;;3.47;;
32535;SDS011;18974;50.838;4.636;2022-08-21T03:34:20;13.50;;;3.60;;
32535;SDS011;18974;50.838;4.636;2022-08-21T03:36:46;9.00;;;3.60;;
32535;SDS011;18974;50.838;4.636;2022-08-21T03:39:13;9.07;;;3.78;;
32535;SDS011;18974;50.838;4.636;2022-08-21T03:41:40;7.25;;;3.20;;
32535;SDS011;18974;50.838;4.636;2022-08-21T03:44:06;6.47;;;3.60;;
32535;SDS011;18974;50.838;4.636;2022-08-21T03:46:32;9.57;;;3.67;;
32535;SDS011;18974;50.838;4.636;2022-08-21T03:48:57;11.35;;;3.47;;
32535;SDS011;18974;50.838;4.636;2022-08-21T03:51:23;8.68;;;3.08;;
32535;SDS011;18974;50.838;4.636;2022-08-21T03:53:49;10.30;;;3.17;;
32535;SDS011;18974;50.838;4.636;2022-08-21T03:56:14;12.05;;;4.05;;
32535;SDS011;18974;50.838;4.636;2022-08-21T03:58:41;7.43;;;3.67;;
32535;SDS011;18974;50.838;4.636;2022-08-21T04:01:07;9.38;;;3.60;;
32535;SDS011;18974;50.838;4.636;2022-08-21T04:03:34;9.27;;;3.78;;
32535;SDS011;18974;50.838;4.636;2022-08-21T04:06:01;9.38;;;4.10;;
32535;SDS011;18974;50.838;4.636;2022-08-21T04:08:27;14.68;;;3.78;;
32535;SDS011;18974;50.838;4.636;2022-08-21T04:10:54;8.45;;;3.10;;
32535;SDS011;18974;50.838;4.636;2022-08-21T04:13:21;7.78;;;3.22;;
32535;SDS011;18974;50.838;4.636;2022-08-21T04:15:47;7.97;;;4.82;;
32535;SDS011;18974;50.838;4.636;2022-08-21T04:18:13;7.82;;;3.20;;
32535;SDS011;18974;50.838;4.636;2022-08-21T04:20:39;7.43;;;3.28;;
32535;SDS011;18974;50.838;4.636;2022-08-21T04:23:06;7.57;;;3.33;;
32535;SDS011;18974;50.838;4.636;2022-08-21T04:25:32;8.13;;;3.63;;
32535;SDS011;18974;50.838;4.636;2022-08-21T04:27:58;14.75;;;3.45;;
32535;SDS011;18974;50.838;4.636;2022-08-21T04:30:24;9.95;;;4.05;;
32535;SDS011;18974;50.838;4.636;2022-08-21T04:32:50;7.45;;;3.60;;
32535;SDS011;18974;50.838;4.636;2022-08-21T04:35:20;7.93;;;3.03;;
32535;SDS011;18974;50.838;4.636;2022-08-21T04:37:47;7.03;;;3.38;;
32535;SDS011;18974;50.838;4.636;2022-08-21T04:40:13;10.15;;;3.40;;
32535;SDS011;18974;50.838;4.636;2022-08-21T04:42:45;8.98;;;3.67;;
32535;SDS011;18974;50.838;4.636;2022-08-21T04:45:24;10.25;;;3.58;;
32535;SDS011;18974;50.838;4.636;2022-08-21T04:48:05;8.88;;;3.67;;
32535;SDS011;18974;50.838;4.636;2022-08-21T04:50:36;7.88;;;3.60;;
32535;SDS011;18974;50.838;4.636;2022-08-21T04:53:17;11.55;;;3.67;;
32535;SDS011;18974;50.838;4.636;2022-08-21T04:55:45;8.43;;;3.70;;
32535;SDS011;18974;50.838;4.636;2022-08-21T04:58:13;8.68;;;3.05;;
32535;SDS011;18974;50.838;4.636;2022-08-21T05:00:42;6.57;;;3.50;;
32535;SDS011;18974;50.838;4.636;2022-08-21T05:03:09;11.10;;;3.38;;
32535;SDS011;18974;50.838;4.636;2022-08-21T05:05:36;7.95;;;3.13;;
32535;SDS011;18974;50.838;4.636;2022-08-21T05:08:03;8.95;;;3.20;;
32535;SDS011;18974;50.838;4.636;2022-08-21T05:10:32;8.30;;;3.00;;
32535;SDS011;18974;50.838;4.636;2022-08-21T05:12:59;16.70;;;3.40;;
32535;SDS011;18974;50.838;4.636;2022-08-21T05:15:25;9.38;;;3.38;;
32535;SDS011;18974;50.838;4.636;2022-08-21T05:17:51;6.18;;;3.13;;
32535;SDS011;18974;50.838;4.636;2022-08-21T05:20:17;9.23;;;2.50;;
32535;SDS011;18974;50.838;4.636;2022-08-21T05:22:43;7.95;;;3.15;;
32535;SDS011;18974;50.838;4.636;2022-08-21T05:25:09;6.95;;;2.92;;
32535;SDS011;18974;50.838;4.636;2022-08-21T05:27:35;8.55;;;3.30;;
32535;SDS011;18974;50.838;4.636;2022-08-21T05:30:02;11.18;;;3.28;;
32535;SDS011;18974;50.838;4.636;2022-08-21T05:32:28;8.23;;;2.92;;
32535;SDS011;18974;50.838;4.636;2022-08-21T05:34:54;7.97;;;2.92;;
32535;SDS011;18974;50.838;4.636;2022-08-21T05:37:19;8.07;;;2.75;;
32535;SDS011;18974;50.838;4.636;2022-08-21T05:39:45;5.20;;;2.60;;
32535;SDS011;18974;50.838;4.636;2022-08-21T05:42:11;7.88;;;3.28;;
32535;SDS011;18974;50.838;4.636;2022-08-21T05:44:37;9.75;;;3.22;;
32535;SDS011;18974;50.838;4.636;2022-08-21T05:47:03;9.00;;;3.08;;
32535;SDS011;18974;50.838;4.636;2022-08-21T05:49:33;6.72;;;2.95;;
32535;SDS011;18974;50.838;4.636;2022-08-21T05:51:59;12.52;;;2.88;;
32535;SDS011;18974;50.838;4.636;2022-08-21T05:54:26;4.75;;;2.90;;
32535;SDS011;18974;50.838;4.636;2022-08-21T05:56:51;5.97;;;3.03;;
32535;SDS011;18974;50.838;4.636;2022-08-21T05:59:17;9.35;;;3.33;;
32535;SDS011;18974;50.838;4.636;2022-08-21T06:01:43;6.50;;;2.35;;
32535;SDS011;18974;50.838;4.636;2022-08-21T06:04:10;7.40;;;2.63;;
32535;SDS011;18974;50.838;4.636;2022-08-21T06:06:36;7.72;;;3.13;;
32535;SDS011;18974;50.838;4.636;2022-08-21T06:09:02;6.28;;;2.53;;
32535;SDS011;18974;50.838;4.636;2022-08-21T06:11:29;9.18;;;2.80;;
32535;SDS011;18974;50.838;4.636;2022-08-21T06:13:55;6.88;;;2.83;;
32535;SDS011;18974;50.838;4.636;2022-08-21T06:16:21;5.88;;;2.75;;
32535;SDS011;18974;50.838;4.636;2022-08-21T06:18:47;8.40;;;3.00;;
32535;SDS011;18974;50.838;4.636;2022-08-21T06:21:13;6.38;;;2.78;;
32535;SDS011;18974;50.838;4.636;2022-08-21T06:23:39;8.48;;;2.75;;
32535;SDS011;18974;50.838;4.636;2022-08-21T06:26:06;9.75;;;3.13;;
32535;SDS011;18974;50.838;4.636;2022-08-21T06:28:33;6.85;;;2.63;;
32535;SDS011;18974;50.838;4.636;2022-08-21T06:30:59;7.18;;;2.33;;
32535;SDS011;18974;50.838;4.636;2022-08-21T06:33:25;7.68;;;2.92;;
32535;SDS011;18974;50.838;4.636;2022-08-21T06:35:51;6.97;;;2.60;;
32535;SDS011;18974;50.838;4.636;2022-08-21T06:38:17;4.75;;;2.53;;
32535;SDS011;18974;50.838;4.636;2022-08-21T06:40:43;9.85;;;2.70;;
32535;SDS011;18974;50.838;4.636;2022-08-21T06:43:10;6.22;;;2.25;;
32535;SDS011;18974;50.838;4.636;2022-08-21T06:45:37;6.03;;;2.35;;
32535;SDS011;18974;50.838;4.636;2022-08-21T06:48:03;5.75;;;2.30;;
32535;SDS011;18974;50.838;4.636;2022-08-21T06:50:31;4.70;;;2.38;;
32535;SDS011;18974;50.838;4.636;2022-08-21T06:53:03;9.88;;;2.67;;
32535;SDS011;18974;50.838;4.636;2022-08-21T06:55:31;8.07;;;2.60;;
32535;SDS011;18974;50.838;4.636;2022-08-21T06:57:57;6.18;;;2.35;;
32535;SDS011;18974;50.838;4.636;2022-08-21T07:00:23;6.45;;;2.20;;
32535;SDS011;18974;50.838;4.636;2022-08-21T07:02:49;6.28;;;2.53;;
32535;SDS011;18974;50.838;4.636;2022-08-21T07:05:15;7.45;;;2.60;;
32535;SDS011;18974;50.838;4.636;2022-08-21T07:07:41;7.28;;;2.30;;
32535;SDS011;18974;50.838;4.636;2022-08-21T07:10:07;7.68;;;2.72;;
32535;SDS011;18974;50.838;4.636;2022-08-21T07:12:33;5.97;;;2.30;;
32535;SDS011;18974;50.838;4.636;2022-08-21T07:14:59;11.38;;;2.40;;
32535;SDS011;18974;50.838;4.636;2022-08-21T07:17:24;7.80;;;2.72;;
32535;SDS011;18974;50.838;4.636;2022-08-21T07:19:50;8.90;;;2.15;;
32535;SDS011;18974;50.838;4.636;2022-08-21T07:22:17;10.63;;;1.60;;
32535;SDS011;18974;50.838;4.636;2022-08-21T07:24:45;8.00;;;1.80;;
32535;SDS011;18974;50.838;4.636;2022-08-21T07:27:11;6.10;;;1.45;;
32535;SDS011;18974;50.838;4.636;2022-08-21T07:29:37;5.88;;;2.40;;
32535;SDS011;18974;50.838;4.636;2022-08-21T07:32:04;9.00;;;2.08;;
32535;SDS011;18974;50.838;4.636;2022-08-21T07:34:29;4.88;;;2.03;;
32535;SDS011;18974;50.838;4.636;2022-08-21T07:36:56;6.60;;;1.33;;
32535;SDS011;18974;50.838;4.636;2022-08-21T07:39:22;8.10;;;1.77;;
32535;SDS011;18974;50.838;4.636;2022-08-21T07:41:48;7.20;;;1.75;;
32535;SDS011;18974;50.838;4.636;2022-08-21T07:44:14;5.57;;;1.48;;
32535;SDS011;18974;50.838;4.636;2022-08-21T07:46:39;8.00;;;1.65;;
32535;SDS011;18974;50.838;4.636;2022-08-21T07:49:05;6.88;;;1.40;;
32535;SDS011;18974;50.838;4.636;2022-08-21T07:51:31;8.70;;;1.67;;
32535;SDS011;18974;50.838;4.636;2022-08-21T07:53:58;6.32;;;1.73;;
32535;SDS011;18974;50.838;4.636;2022-08-21T07:56:26;5.43;;;1.50;;
32535;SDS011;18974;50.838;4.636;2022-08-21T07:58:52;12.13;;;1.88;;
32535;SDS011;18974;50.838;4.636;2022-08-21T08:01:18;7.32;;;1.80;;
32535;SDS011;18974;50.838;4.636;2022-08-21T08:03:45;7.90;;;1.73;;
32535;SDS011;18974;50.838;4.636;2022-08-21T08:06:11;8.93;;;1.50;;
32535;SDS011;18974;50.838;4.636;2022-08-21T08:08:40;6.28;;;1.08;;
32535;SDS011;18974;50.838;4.636;2022-08-21T08:11:07;5.88;;;1.00;;
32535;SDS011;18974;50.838;4.636;2022-08-21T08:13:46;9.88;;;1.38;;
32535;SDS011;18974;50.838;4.636;2022-08-21T08:16:13;6.05;;;1.15;;
32535;SDS011;18974;50.838;4.636;2022-08-21T08:18:39;6.22;;;1.10;;
32535;SDS011;18974;50.838;4.636;2022-08-21T08:21:07;4.90;;;1.50;;
32535;SDS011;18974;50.838;4.636;2022-08-21T08:23:33;4.40;;;1.27;;
32535;SDS011;18974;50.838;4.636;2022-08-21T08:25:59;6.20;;;1.20;;
32535;SDS011;18974;50.838;4.636;2022-08-21T08:28:25;6.25;;;1.85;;
32535;SDS011;18974;50.838;4.636;2022-08-21T08:30:52;7.72;;;1.30;;
32535;SDS011;18974;50.838;4.636;2022-08-21T08:33:17;5.70;;;1.10;;
32535;SDS011;18974;50.838;4.636;2022-08-21T08:35:45;9.13;;;1.77;;
32535;SDS011;18974;50.838;4.636;2022-08-21T08:38:13;6.38;;;1.33;;
32535;SDS011;18974;50.838;4.636;2022-08-21T08:40:55;7.90;;;1.65;;
32535;SDS011;18974;50.838;4.636;2022-08-21T08:43:33;5.70;;;1.92;;
32535;SDS011;18974;50.838;4.636;2022-08-21T08:46:01;9.20;;;1.55;;
32535;SDS011;18974;50.838;4.636;2022-08-21T08:54:51;7.30;;;1.67;;
32535;SDS011;18974;50.838;4.636;2022-08-21T08:57:13;5.53;;;1.30;;
32535;SDS011;18974;50.838;4.636;2022-08-21T08:59:45;6.93;;;1.23;;
32535;SDS011;18974;50.838;4.636;2022-08-21T09:02:13;9.00;;;1.27;;
32535;SDS011;18974;50.838;4.636;2022-08-21T09:04:41;8.18;;;1.55;;
32535;SDS011;18974;50.838;4.636;2022-08-21T09:20:37;8.60;;;1.48;;
32535;SDS011;18974;50.838;4.636;2022-08-21T09:23:18;4.32;;;1.33;;
32535;SDS011;18974;50.838;4.636;2022-08-21T09:28:39;6.03;;;1.15;;
32535;SDS011;18974;50.838;4.636;2022-08-21T09:31:31;6.88;;;1.50;;
32535;SDS011;18974;50.838;4.636;2022-08-21T09:34:03;8.85;;;1.80;;
32535;SDS011;18974;50.838;4.636;2022-08-21T09:36:41;6.47;;;1.40;;
32535;SDS011;18974;50.838;4.636;2022-08-21T09:39:09;7.18;;;1.35;;
32535;SDS011;18974;50.838;4.636;2022-08-21T09:41:36;6.18;;;1.45;;
32535;SDS011;18974;50.838;4.636;2022-08-21T09:44:04;3.97;;;1.13;;
32535;SDS011;18974;50.838;4.636;2022-08-21T09:46:31;7.10;;;1.33;;
32535;SDS011;18974;50.838;4.636;2022-08-21T09:48:58;4.47;;;1.20;;
32535;SDS011;18974;50.838;4.636;2022-08-21T09:51:28;6.13;;;1.20;;
32535;SDS011;18974;50.838;4.636;2022-08-21T09:54:17;5.75;;;1.40;;
32535;SDS011;18974;50.838;4.636;2022-08-21T09:59:39;5.35;;;1.08;;
32535;SDS011;18974;50.838;4.636;2022-08-21T10:02:23;5.15;;;1.70;;
32535;SDS011;18974;50.838;4.636;2022-08-21T10:05:00;8.98;;;1.40;;
32535;SDS011;18974;50.838;4.636;2022-08-21T10:07:47;7.53;;;1.58;;
32535;SDS011;18974;50.838;4.636;2022-08-21T10:10:15;5.78;;;1.50;;
32535;SDS011;18974;50.838;4.636;2022-08-21T10:12:58;4.78;;;1.25;;
32535;SDS011;18974;50.838;4.636;2022-08-21T10:20:45;10.18;;;3.55;;
32535;SDS011;18974;50.838;4.636;2022-08-21T10:26:09;4.35;;;1.13;;
32535;SDS011;18974;50.838;4.636;2022-08-21T10:28:40;8.23;;;1.38;;
32535;SDS011;18974;50.838;4.636;2022-08-21T10:45:46;13.55;;;5.85;;
32535;SDS011;18974;50.838;4.636;2022-08-21T10:53:45;14.55;;;3.90;;
32535;SDS011;18974;50.838;4.636;2022-08-21T10:56:23;5.85;;;1.63;;
32535;SDS011;18974;50.838;4.636;2022-08-21T11:02:04;9.27;;;1.58;;
32535;SDS011;18974;50.838;4.636;2022-08-21T11:04:55;7.85;;;2.03;;
32535;SDS011;18974;50.838;4.636;2022-08-21T11:07:26;6.07;;;2.10;;
32535;SDS011;18974;50.838;4.636;2022-08-21T11:09:55;6.30;;;1.85;;
32535;SDS011;18974;50.838;4.636;2022-08-21T11:12:27;8.70;;;1.77;;
32535;SDS011;18974;50.838;4.636;2022-08-21T11:14:59;6.25;;;2.10;;
32535;SDS011;18974;50.838;4.636;2022-08-21T11:17:48;6.80;;;1.63;;
32535;SDS011;18974;50.838;4.636;2022-08-21T11:20:40;10.90;;;1.90;;
32535;SDS011;18974;50.838;4.636;2022-08-21T11:23:28;11.88;;;1.80;;
32535;SDS011;18974;50.838;4.636;2022-08-21T11:26:02;7.63;;;1.87;;
32535;SDS011;18974;50.838;4.636;2022-08-21T11:29:10;9.75;;;1.95;;
32535;SDS011;18974;50.838;4.636;2022-08-21T11:37:01;7.57;;;2.30;;
32535;SDS011;18974;50.838;4.636;2022-08-21T11:42:15;10.77;;;2.42;;
32535;SDS011;18974;50.838;4.636;2022-08-21T11:47:56;5.50;;;1.35;;
32535;SDS011;18974;50.838;4.636;2022-08-21T11:50:33;5.72;;;1.88;;
32535;SDS011;18974;50.838;4.636;2022-08-21T11:53:17;7.40;;;2.03;;
32535;SDS011;18974;50.838;4.636;2022-08-21T11:58:41;9.02;;;2.00;;
32535;SDS011;18974;50.838;4.636;2022-08-21T12:01:21;8.23;;;1.88;;
32535;SDS011;18974;50.838;4.636;2022-08-21T12:04:02;6.50;;;1.42;;
32535;SDS011;18974;50.838;4.636;2022-08-21T12:06:33;7.10;;;1.92;;
32535;SDS011;18974;50.838;4.636;2022-08-21T12:09:03;5.10;;;1.73;;
32535;SDS011;18974;50.838;4.636;2022-08-21T12:11:45;6.18;;;1.50;;
32535;SDS011;18974;50.838;4.636;2022-08-21T12:14:19;6.88;;;1.65;;
32535;SDS011;18974;50.838;4.636;2022-08-21T12:16:45;7.90;;;2.50;;
32535;SDS011;18974;50.838;4.636;2022-08-21T12:26:57;8.25;;;1.80;;
32535;SDS011;18974;50.838;4.636;2022-08-21T12:29:39;5.20;;;1.98;;
32535;SDS011;18974;50.838;4.636;2022-08-21T12:34:41;4.30;;;1.20;;
32535;SDS011;18974;50.838;4.636;2022-08-21T12:37:22;9.20;;;1.95;;
32535;SDS011;18974;50.838;4.636;2022-08-21T12:39:57;10.98;;;1.90;;
32535;SDS011;18974;50.838;4.636;2022-08-21T12:42:31;7.22;;;1.77;;
32535;SDS011;18974;50.838;4.636;2022-08-21T12:45:13;5.28;;;1.38;;
32535;SDS011;18974;50.838;4.636;2022-08-21T12:47:47;8.00;;;1.80;;
32535;SDS011;18974;50.838;4.636;2022-08-21T12:50:22;6.40;;;1.63;;
32535;SDS011;18974;50.838;4.636;2022-08-21T12:53:25;8.93;;;1.77;;
32535;SDS011;18974;50.838;4.636;2022-08-21T12:56:01;5.80;;;1.48;;
32535;SDS011;18974;50.838;4.636;2022-08-21T12:58:29;8.75;;;1.50;;
32535;SDS011;18974;50.838;4.636;2022-08-21T13:00:58;8.77;;;1.75;;
32535;SDS011;18974;50.838;4.636;2022-08-21T13:03:30;3.28;;;1.40;;
32535;SDS011;18974;50.838;4.636;2022-08-21T13:05:59;10.90;;;2.10;;
32535;SDS011;18974;50.838;4.636;2022-08-21T13:08:27;6.32;;;2.20;;
32535;SDS011;18974;50.838;4.636;2022-08-21T13:10:58;5.70;;;1.50;;
32535;SDS011;18974;50.838;4.636;2022-08-21T13:13:26;10.00;;;1.38;;
32535;SDS011;18974;50.838;4.636;2022-08-21T13:16:03;5.82;;;1.77;;
32535;SDS011;18974;50.838;4.636;2022-08-21T13:18:32;7.18;;;1.73;;
32535;SDS011;18974;50.838;4.636;2022-08-21T13:21:09;8.88;;;2.20;;
32535;SDS011;18974;50.838;4.636;2022-08-21T13:23:39;4.35;;;1.58;;
32535;SDS011;18974;50.838;4.636;2022-08-21T13:26:13;7.60;;;1.65;;
32535;SDS011;18974;50.838;4.636;2022-08-21T13:28:40;3.75;;;1.40;;
32535;SDS011;18974;50.838;4.636;2022-08-21T13:31:07;6.70;;;1.60;;
32535;SDS011;18974;50.838;4.636;2022-08-21T13:33:38;5.68;;;1.73;;
32535;SDS011;18974;50.838;4.636;2022-08-21T13:36:09;8.18;;;1.63;;
32535;SDS011;18974;50.838;4.636;2022-08-21T13:38:42;5.25;;;1.52;;
32535;SDS011;18974;50.838;4.636;2022-08-21T13:43:44;8.07;;;1.88;;
32535;SDS011;18974;50.838;4.636;2022-08-21T13:46:15;5.20;;;1.38;;
32535;SDS011;18974;50.838;4.636;2022-08-21T13:48:41;5.75;;;1.73;;
32535;SDS011;18974;50.838;4.636;2022-08-21T13:51:08;7.43;;;1.35;;
32535;SDS011;18974;50.838;4.636;2022-08-21T13:56:02;6.82;;;1.48;;
32535;SDS011;18974;50.838;4.636;2022-08-21T13:58:51;5.28;;;1.70;;
32535;SDS011;18974;50.838;4.636;2022-08-21T14:03:44;5.35;;;1.40;;
32535;SDS011;18974;50.838;4.636;2022-08-21T14:06:56;8.88;;;1.67;;
32535;SDS011;18974;50.838;4.636;2022-08-21T14:11:40;5.85;;;1.70;;
32535;SDS011;18974;50.838;4.636;2022-08-21T14:14:14;5.32;;;1.42;;
32535;SDS011;18974;50.838;4.636;2022-08-21T14:16:46;5.53;;;1.80;;
32535;SDS011;18974;50.838;4.636;2022-08-21T14:19:21;4.82;;;1.25;;
32535;SDS011;18974;50.838;4.636;2022-08-21T14:21:49;5.13;;;1.60;;
32535;SDS011;18974;50.838;4.636;2022-08-21T14:29:26;4.35;;;1.83;;
32535;SDS011;18974;50.838;4.636;2022-08-21T14:31:58;11.93;;;2.45;;
32535;SDS011;18974;50.838;4.636;2022-08-21T14:34:26;4.57;;;1.30;;
32535;SDS011;18974;50.838;4.636;2022-08-21T14:36:54;7.00;;;1.48;;
32535;SDS011;18974;50.838;4.636;2022-08-21T14:39:20;5.80;;;1.60;;
32535;SDS011;18974;50.838;4.636;2022-08-21T14:41:46;8.40;;;2.05;;
32535;SDS011;18974;50.838;4.636;2022-08-21T14:44:16;9.25;;;1.90;;
32535;SDS011;18974;50.838;4.636;2022-08-21T14:46:44;7.20;;;1.70;;
32535;SDS011;18974;50.838;4.636;2022-08-21T14:49:10;5.85;;;1.40;;
32535;SDS011;18974;50.838;4.636;2022-08-21T14:51:36;6.25;;;1.98;;
32535;SDS011;18974;50.838;4.636;2022-08-21T14:54:04;8.52;;;1.70;;
32535;SDS011;18974;50.838;4.636;2022-08-21T14:56:31;5.78;;;1.70;;
32535;SDS011;18974;50.838;4.636;2022-08-21T14:58:58;8.52;;;1.90;;
32535;SDS011;18974;50.838;4.636;2022-08-21T15:01:29;4.38;;;1.55;;
32535;SDS011;18974;50.838;4.636;2022-08-21T15:03:57;9.85;;;2.33;;
32535;SDS011;18974;50.838;4.636;2022-08-21T15:06:22;12.05;;;2.47;;
32535;SDS011;18974;50.838;4.636;2022-08-21T15:08:48;5.60;;;1.52;;
32535;SDS011;18974;50.838;4.636;2022-08-21T15:11:16;6.80;;;1.60;;
32535;SDS011;18974;50.838;4.636;2022-08-21T15:13:44;5.88;;;1.65;;
32535;SDS011;18974;50.838;4.636;2022-08-21T15:16:11;6.97;;;1.60;;
32535;SDS011;18974;50.838;4.636;2022-08-21T15:18:36;7.40;;;1.58;;
32535;SDS011;18974;50.838;4.636;2022-08-21T15:21:02;9.60;;;1.90;;
32535;SDS011;18974;50.838;4.636;2022-08-21T15:23:28;5.38;;;1.50;;
32535;SDS011;18974;50.838;4.636;2022-08-21T15:25:53;5.95;;;1.38;;
32535;SDS011;18974;50.838;4.636;2022-08-21T15:28:22;5.78;;;1.77;;
32535;SDS011;18974;50.838;4.636;2022-08-21T15:30:49;4.80;;;1.33;;
32535;SDS011;18974;50.838;4.636;2022-08-21T15:33:16;6.18;;;1.83;;
32535;SDS011;18974;50.838;4.636;2022-08-21T15:35:43;7.55;;;1.50;;
32535;SDS011;18974;50.838;4.636;2022-08-21T15:38:10;8.85;;;1.50;;
32535;SDS011;18974;50.838;4.636;2022-08-21T15:40:37;8.68;;;1.92;;
32535;SDS011;18974;50.838;4.636;2022-08-21T15:43:04;6.78;;;1.85;;
32535;SDS011;18974;50.838;4.636;2022-08-21T15:45:31;5.18;;;1.80;;
32535;SDS011;18974;50.838;4.636;2022-08-21T15:47:58;5.43;;;1.80;;
32535;SDS011;18974;50.838;4.636;2022-08-21T15:50:24;8.77;;;2.05;;
32535;SDS011;18974;50.838;4.636;2022-08-21T15:52:51;5.38;;;1.52;;
32535;SDS011;18974;50.838;4.636;2022-08-21T15:55:17;7.60;;;2.08;;
32535;SDS011;18974;50.838;4.636;2022-08-21T15:57:44;6.80;;;2.28;;
32535;SDS011;18974;50.838;4.636;2022-08-21T16:00:20;7.40;;;2.38;;
32535;SDS011;18974;50.838;4.636;2022-08-21T16:02:50;6.00;;;1.58;;
32535;SDS011;18974;50.838;4.636;2022-08-21T16:05:18;5.15;;;1.35;;
32535;SDS011;18974;50.838;4.636;2022-08-21T16:07:45;4.80;;;1.88;;
32535;SDS011;18974;50.838;4.636;2022-08-21T16:10:12;5.72;;;1.90;;
32535;SDS011;18974;50.838;4.636;2022-08-21T16:12:41;9.13;;;1.98;;
32535;SDS011;18974;50.838;4.636;2022-08-21T16:15:10;6.10;;;1.52;;
32535;SDS011;18974;50.838;4.636;2022-08-21T16:17:39;7.78;;;1.50;;
32535;SDS011;18974;50.838;4.636;2022-08-21T16:20:09;9.05;;;1.75;;
32535;SDS011;18974;50.838;4.636;2022-08-21T16:22:41;8.95;;;1.70;;
32535;SDS011;18974;50.838;4.636;2022-08-21T16:25:07;6.65;;;1.52;;
32535;SDS011;18974;50.838;4.636;2022-08-21T16:27:34;7.72;;;2.03;;
32535;SDS011;18974;50.838;4.636;2022-08-21T16:30:00;4.07;;;1.38;;
32535;SDS011;18974;50.838;4.636;2022-08-21T16:32:26;6.63;;;1.48;;
32535;SDS011;18974;50.838;4.636;2022-08-21T16:34:53;8.15;;;1.60;;
32535;SDS011;18974;50.838;4.636;2022-08-21T16:37:19;5.97;;;1.52;;